sensor_id;sensor_type;location;lat;lon;timestamp;P1;P2;P0
45788;PMS7003;31492;54.856;26.318;2023-04-16T00:01:02;11.4;9.2;6.6
45788;PMS7003;31492;54.856;26.318;2023-04-16T00:06:20;12.7;10.7;8
45788;PMS7003;31492;54.856;26.318;2023-04-16T00:11:02;12.4;11.1;8.3
45788;PMS7003;31492;54.856;26.318;2023-04-16T00:16:12;12.4;10.2;7.8
45788;PMS7003;31492;54.856;26.318;2023-04-16T00:21:14;12.7;10.4;7.6
45788;PMS7003;31492;54.856;26.318;2023-04-16T00:26:24;10.5;9;6.8
45788;PMS7003;31492;54.856;26.318;2023-04-16T00:31:02;12.2;10.2;7.7
45788;PMS7003;31492;54.856;26.318;2023-04-16T00:36:14;11.5;9.8;7.4
45788;PMS7003;31492;54.856;26.318;2023-04-16T00:41:22;11.9;10;7.3
45788;PMS7003;31492;54.856;26.318;2023-04-16T00:46:08;11.6;9.9;7.3
45788;PMS7003;31492;54.856;26.318;2023-04-16T00:51:14;12.9;10;7.5
45788;PMS7003;31492;54.856;26.318;2023-04-16T00:56:02;11.5;10.4;7.7
45788;PMS7003;31492;54.856;26.318;2023-04-16T01:01:36;12;10.2;7.4
45788;PMS7003;31492;54.856;26.318;2023-04-16T01:06:10;11.2;10.1;7.6
45788;PMS7003;31492;54.856;26.318;2023-04-16T01:11:20;13.5;11.4;7.9
45788;PMS7003;31492;54.856;26.318;2023-04-16T01:16:24;12.3;10.1;7.5
45788;PMS7003;31492;54.856;26.318;2023-04-16T01:21:18;11.9;10.2;7.6
45788;PMS7003;31492;54.856;26.318;2023-04-16T01:26:12;11;9.4;7.7
45788;PMS7003;31492;54.856;26.318;2023-04-16T01:31:02;12.3;10.4;7.7
45788;PMS7003;31492;54.856;26.318;2023-04-16T01:36:14;12.1;10;7.2
45788;PMS7003;31492;54.856;26.318;2023-04-16T01:41:12;11.6;9.9;7.5
45788;PMS7003;31492;54.856;26.318;2023-04-16T01:46:34;11.2;9.9;7.1
45788;PMS7003;31492;54.856;26.318;2023-04-16T01:51:14;11.4;9.8;7.1
45788;PMS7003;31492;54.856;26.318;2023-04-16T01:56:12;10.9;9.7;7.2
45788;PMS7003;31492;54.856;26.318;2023-04-16T02:01:20;11.4;9.9;7.3
45788;PMS7003;31492;54.856;26.318;2023-04-16T02:06:14;12.2;10.2;7.7
45788;PMS7003;31492;54.856;26.318;2023-04-16T02:11:34;10.5;9.2;6.5
45788;PMS7003;31492;54.856;26.318;2023-04-16T02:16:02;11.4;9.9;6.8
45788;PMS7003;31492;54.856;26.318;2023-04-16T02:21:12;11.9;9.7;7
45788;PMS7003;31492;54.856;26.318;2023-04-16T02:26:08;11.3;10.4;7.6
45788;PMS7003;31492;54.856;26.318;2023-04-16T02:31:12;11.6;9.8;6.8
45788;PMS7003;31492;54.856;26.318;2023-04-16T02:36:12;13.1;10.7;7.9
45788;PMS7003;31492;54.856;26.318;2023-04-16T02:41:02;12;10.3;7.7
45788;PMS7003;31492;54.856;26.318;2023-04-16T02:46:02;11;9.4;7.1
45788;PMS7003;31492;54.856;26.318;2023-04-16T02:51:02;11.7;9.8;7.5
45788;PMS7003;31492;54.856;26.318;2023-04-16T02:56:02;12.2;9.5;7.2
45788;PMS7003;31492;54.856;26.318;2023-04-16T03:01:02;11.5;9.7;7
45788;PMS7003;31492;54.856;26.318;2023-04-16T03:06:12;12.6;10.5;7.4
45788;PMS7003;31492;54.856;26.318;2023-04-16T03:11:02;13.5;10.6;8
45788;PMS7003;31492;54.856;26.318;2023-04-16T03:16:12;12.8;10.4;7.7
45788;PMS7003;31492;54.856;26.318;2023-04-16T03:21:12;11.8;10.5;7.7
45788;PMS7003;31492;54.856;26.318;2023-04-16T03:26:12;11.7;10;7.4
45788;PMS7003;31492;54.856;26.318;2023-04-16T03:31:12;11.8;10.2;7.1
45788;PMS7003;31492;54.856;26.318;2023-04-16T03:36:02;12.3;10.5;8.1
45788;PMS7003;31492;54.856;26.318;2023-04-16T03:41:02;14.3;12.6;9.2
45788;PMS7003;31492;54.856;26.318;2023-04-16T03:46:30;12.9;11;8.3
45788;PMS7003;31492;54.856;26.318;2023-04-16T03:51:24;13;10.6;7.7
45788;PMS7003;31492;54.856;26.318;2023-04-16T03:56:12;12.7;10.9;7.9
45788;PMS7003;31492;54.856;26.318;2023-04-16T04:01:02;12.3;10.9;8.3
45788;PMS7003;31492;54.856;26.318;2023-04-16T04:06:43;13.1;11.3;8
45788;PMS7003;31492;54.856;26.318;2023-04-16T04:11:12;13.8;11.8;8.7
45788;PMS7003;31492;54.856;26.318;2023-04-16T04:16:12;12.6;11.2;7.5
45788;PMS7003;31492;54.856;26.318;2023-04-16T04:21:12;12.4;11.2;8
45788;PMS7003;31492;54.856;26.318;2023-04-16T04:26:02;12.7;10.8;7.9
45788;PMS7003;31492;54.856;26.318;2023-04-16T04:31:10;13.3;11.1;8.2
45788;PMS7003;31492;54.856;26.318;2023-04-16T04:36:12;14.1;11.4;8.2
45788;PMS7003;31492;54.856;26.318;2023-04-16T04:41:02;13;12;8.8
45788;PMS7003;31492;54.856;26.318;2023-04-16T04:46:12;14.7;12.4;8.5
45788;PMS7003;31492;54.856;26.318;2023-04-16T04:51:10;13.2;11.3;8.5
45788;PMS7003;31492;54.856;26.318;2023-04-16T04:56:12;13.7;11.8;8.6
45788;PMS7003;31492;54.856;26.318;2023-04-16T05:01:02;12.7;10.6;8.5
45788;PMS7003;31492;54.856;26.318;2023-04-16T05:06:02;15;12.1;8.9
45788;PMS7003;31492;54.856;26.318;2023-04-16T05:11:02;14.4;12.6;8.7
45788;PMS7003;31492;54.856;26.318;2023-04-16T05:16:34;13.7;12.3;9
45788;PMS7003;31492;54.856;26.318;2023-04-16T05:21:16;14.5;12.4;9.1
45788;PMS7003;31492;54.856;26.318;2023-04-16T05:26:12;13.7;11.9;8.8
45788;PMS7003;31492;54.856;26.318;2023-04-16T05:31:12;12.6;11.6;8
45788;PMS7003;31492;54.856;26.318;2023-04-16T05:36:02;13.9;12.1;9
45788;PMS7003;31492;54.856;26.318;2023-04-16T05:41:02;15.6;12.1;8.7
45788;PMS7003;31492;54.856;26.318;2023-04-16T05:46:02;13.7;11.5;8.3
45788;PMS7003;31492;54.856;26.318;2023-04-16T05:51:22;15.3;12.6;8.9
45788;PMS7003;31492;54.856;26.318;2023-04-16T05:56:12;15;12.4;9.3
45788;PMS7003;31492;54.856;26.318;2023-04-16T06:01:22;15;12.5;9.1
45788;PMS7003;31492;54.856;26.318;2023-04-16T06:06:02;14.4;12.7;9.2
45788;PMS7003;31492;54.856;26.318;2023-04-16T06:11:10;13.6;12.4;9
45788;PMS7003;31492;54.856;26.318;2023-04-16T06:16:02;14.6;12.6;9.1
45788;PMS7003;31492;54.856;26.318;2023-04-16T06:21:02;13.3;11.6;8.7
45788;PMS7003;31492;54.856;26.318;2023-04-16T06:26:22;13.2;11.2;8.4
45788;PMS7003;31492;54.856;26.318;2023-04-16T06:31:12;13.9;11.6;8.8
45788;PMS7003;31492;54.856;26.318;2023-04-16T06:36:10;15.1;12.8;9.1
45788;PMS7003;31492;54.856;26.318;2023-04-16T06:41:02;13.4;11.4;8.4
45788;PMS7003;31492;54.856;26.318;2023-04-16T06:46:02;13.1;10.8;8.3
45788;PMS7003;31492;54.856;26.318;2023-04-16T06:51:10;10.4;9;6.3
45788;PMS7003;31492;54.856;26.318;2023-04-16T06:56:12;13.1;11.6;8.6
45788;PMS7003;31492;54.856;26.318;2023-04-16T07:01:08;13.6;11.4;8.7
45788;PMS7003;31492;54.856;26.318;2023-04-16T07:06:02;12.1;10.2;7.6
45788;PMS7003;31492;54.856;26.318;2023-04-16T07:11:02;13.1;10.7;8
45788;PMS7003;31492;54.856;26.318;2023-04-16T07:16:22;12;10.8;8.6
45788;PMS7003;31492;54.856;26.318;2023-04-16T07:21:14;13.2;11.1;8.6
45788;PMS7003;31492;54.856;26.318;2023-04-16T07:26:12;12.4;10.5;8
45788;PMS7003;31492;54.856;26.318;2023-04-16T07:31:02;12.7;10.8;8.1
45788;PMS7003;31492;54.856;26.318;2023-04-16T07:36:02;11.9;10.2;7.9
45788;PMS7003;31492;54.856;26.318;2023-04-16T07:41:12;11.4;9.7;7.4
45788;PMS7003;31492;54.856;26.318;2023-04-16T07:46:20;12.2;10.3;7.8
45788;PMS7003;31492;54.856;26.318;2023-04-16T07:51:02;12.7;10.3;7.7
45788;PMS7003;31492;54.856;26.318;2023-04-16T07:56:24;11.4;9.9;7.7
45788;PMS7003;31492;54.856;26.318;2023-04-16T08:01:20;11.2;9.2;7.2
45788;PMS7003;31492;54.856;26.318;2023-04-16T08:06:02;12.3;10;7.9
45788;PMS7003;31492;54.856;26.318;2023-04-16T08:11:02;10.8;9.7;7.5
45788;PMS7003;31492;54.856;26.318;2023-04-16T08:16:08;10.7;9.5;7.5
45788;PMS7003;31492;54.856;26.318;2023-04-16T08:21:02;10.2;9;7.1
45788;PMS7003;31492;54.856;26.318;2023-04-16T08:26:02;11.8;10.2;7.5
45788;PMS7003;31492;54.856;26.318;2023-04-16T08:31:22;10.9;9.6;7.4
45788;PMS7003;31492;54.856;26.318;2023-04-16T08:36:32;11.8;9.9;7.5
45788;PMS7003;31492;54.856;26.318;2023-04-16T08:41:18;11.6;9.8;7.4
45788;PMS7003;31492;54.856;26.318;2023-04-16T08:46:02;10.8;9.5;7.4
45788;PMS7003;31492;54.856;26.318;2023-04-16T08:51:02;11.5;9.7;7.6
45788;PMS7003;31492;54.856;26.318;2023-04-16T08:56:12;11.5;9.5;7.6
45788;PMS7003;31492;54.856;26.318;2023-04-16T09:01:02;11;9.9;7.5
45788;PMS7003;31492;54.856;26.318;2023-04-16T09:06:10;11.1;10;7.6
45788;PMS7003;31492;54.856;26.318;2023-04-16T09:11:12;12.6;10.7;7.8
45788;PMS7003;31492;54.856;26.318;2023-04-16T09:16:02;10.9;9.5;7.7
45788;PMS7003;31492;54.856;26.318;2023-04-16T09:21:22;13.2;11.4;8
45788;PMS7003;31492;54.856;26.318;2023-04-16T09:26:32;12.3;10.7;8.2
45788;PMS7003;31492;54.856;26.318;2023-04-16T09:31:18;13.6;11.2;8.3
45788;PMS7003;31492;54.856;26.318;2023-04-16T09:36:15;13.4;10.9;7.8
45788;PMS7003;31492;54.856;26.318;2023-04-16T09:41:14;12.4;10.7;8.2
45788;PMS7003;31492;54.856;26.318;2023-04-16T09:46:22;12.3;10.9;8.1
45788;PMS7003;31492;54.856;26.318;2023-04-16T09:51:20;12.7;10.8;8.1
45788;PMS7003;31492;54.856;26.318;2023-04-16T09:56:04;13.7;11.5;8.5
45788;PMS7003;31492;54.856;26.318;2023-04-16T10:01:24;13.7;11.4;8.5
45788;PMS7003;31492;54.856;26.318;2023-04-16T10:06:06;13.1;11.6;8.7
45788;PMS7003;31492;54.856;26.318;2023-04-16T10:11:02;13.4;11.4;8.2
45788;PMS7003;31492;54.856;26.318;2023-04-16T10:16:02;11.5;10.3;7.6
45788;PMS7003;31492;54.856;26.318;2023-04-16T10:21:20;12.2;10.3;7.9
45788;PMS7003;31492;54.856;26.318;2023-04-16T10:26:02;12.5;10.9;8
45788;PMS7003;31492;54.856;26.318;2023-04-16T10:31:14;13.1;11;8.2
45788;PMS7003;31492;54.856;26.318;2023-04-16T10:36:06;12;10.5;8
45788;PMS7003;31492;54.856;26.318;2023-04-16T10:41:02;12.3;10.5;7.9
45788;PMS7003;31492;54.856;26.318;2023-04-16T10:46:33;13;10.5;7.7
45788;PMS7003;31492;54.856;26.318;2023-04-16T10:51:25;11.9;9.9;7.2
45788;PMS7003;31492;54.856;26.318;2023-04-16T10:56:12;12.6;10.3;7.7
45788;PMS7003;31492;54.856;26.318;2023-04-16T11:01:28;12.5;10.8;7.6
45788;PMS7003;31492;54.856;26.318;2023-04-16T11:06:14;12.4;10.8;8.2
45788;PMS7003;31492;54.856;26.318;2023-04-16T11:11:10;12.4;10.5;7.4
45788;PMS7003;31492;54.856;26.318;2023-04-16T11:16:02;12.5;10.6;7.5
45788;PMS7003;31492;54.856;26.318;2023-04-16T11:21:02;12.5;10.2;7.6
45788;PMS7003;31492;54.856;26.318;2023-04-16T11:26:18;12.4;10.7;7.8
45788;PMS7003;31492;54.856;26.318;2023-04-16T11:31:09;11.6;10;7.8
45788;PMS7003;31492;54.856;26.318;2023-04-16T11:36:08;11.9;10.1;7.5
45788;PMS7003;31492;54.856;26.318;2023-04-16T11:41:17;13.6;10.5;7.2
45788;PMS7003;31492;54.856;26.318;2023-04-16T11:46:10;13.8;11;7.7
45788;PMS7003;31492;54.856;26.318;2023-04-16T11:51:10;13;11.1;7.7
45788;PMS7003;31492;54.856;26.318;2023-04-16T11:56:10;13.4;11.2;8.1
45788;PMS7003;31492;54.856;26.318;2023-04-16T12:01:10;13.7;11.2;7.9
45788;PMS7003;31492;54.856;26.318;2023-04-16T12:06:24;12.3;10.4;6.9
45788;PMS7003;31492;54.856;26.318;2023-04-16T12:11:10;13.1;11;8.1
45788;PMS7003;31492;54.856;26.318;2023-04-16T12:16:02;12.3;10.4;7.1
45788;PMS7003;31492;54.856;26.318;2023-04-16T12:21:14;13.1;10.8;7.3
45788;PMS7003;31492;54.856;26.318;2023-04-16T12:26:05;11.9;10.1;7.3
45788;PMS7003;31492;54.856;26.318;2023-04-16T12:31:35;13.2;11;7.6
45788;PMS7003;31492;54.856;26.318;2023-04-16T12:36:20;11.7;10.2;7.4
45788;PMS7003;31492;54.856;26.318;2023-04-16T12:41:22;12;10.1;6.9
45788;PMS7003;31492;54.856;26.318;2023-04-16T12:46:14;12.9;10.8;7.6
45788;PMS7003;31492;54.856;26.318;2023-04-16T12:51:08;13.2;11.3;7.8
45788;PMS7003;31492;54.856;26.318;2023-04-16T12:56:02;11.7;10.5;7.2
45788;PMS7003;31492;54.856;26.318;2023-04-16T13:01:02;12.7;10.4;7.7
45788;PMS7003;31492;54.856;26.318;2023-04-16T13:06:12;13.1;11.4;8.2
45788;PMS7003;31492;54.856;26.318;2023-04-16T13:11:02;13.8;11.6;8.2
45788;PMS7003;31492;54.856;26.318;2023-04-16T13:16:20;13.3;11.5;7.3
45788;PMS7003;31492;54.856;26.318;2023-04-16T13:21:22;14.6;12;8.1
45788;PMS7003;31492;54.856;26.318;2023-04-16T13:26:02;13.2;10.9;7.4
45788;PMS7003;31492;54.856;26.318;2023-04-16T13:31:02;15;12.6;8.2
45788;PMS7003;31492;54.856;26.318;2023-04-16T13:36:02;15.3;12;8.8
45788;PMS7003;31492;54.856;26.318;2023-04-16T13:41:10;15.8;13.1;8.8
45788;PMS7003;31492;54.856;26.318;2023-04-16T13:46:24;15.8;13.1;9.4
45788;PMS7003;31492;54.856;26.318;2023-04-16T13:51:08;15.4;12.6;8.6
45788;PMS7003;31492;54.856;26.318;2023-04-16T13:56:18;14.8;12.3;8.2
45788;PMS7003;31492;54.856;26.318;2023-04-16T14:01:44;14.8;12.3;8.5
45788;PMS7003;31492;54.856;26.318;2023-04-16T14:06:02;14.5;12.3;8.7
45788;PMS7003;31492;54.856;26.318;2023-04-16T14:11:24;14.3;12.6;8.2
45788;PMS7003;31492;54.856;26.318;2023-04-16T14:16:20;15.3;12.7;8.7
45788;PMS7003;31492;54.856;26.318;2023-04-16T14:21:12;13.7;11.5;8.5
45788;PMS7003;31492;54.856;26.318;2023-04-16T14:26:22;14.3;12;8.5
45788;PMS7003;31492;54.856;26.318;2023-04-16T14:31:02;13.3;11.5;8.2
45788;PMS7003;31492;54.856;26.318;2023-04-16T14:36:24;13.7;11.3;7.4
45788;PMS7003;31492;54.856;26.318;2023-04-16T14:41:08;14.6;11.7;8.2
45788;PMS7003;31492;54.856;26.318;2023-04-16T14:46:12;12.5;10.5;7.3
45788;PMS7003;31492;54.856;26.318;2023-04-16T14:51:14;14.6;11.7;8.1
45788;PMS7003;31492;54.856;26.318;2023-04-16T14:56:02;13.4;11.3;8.2
45788;PMS7003;31492;54.856;26.318;2023-04-16T15:01:12;14.1;11.3;7.9
45788;PMS7003;31492;54.856;26.318;2023-04-16T15:06:02;14.4;11.6;7.9
45788;PMS7003;31492;54.856;26.318;2023-04-16T15:11:02;13.2;11.5;7.7
45788;PMS7003;31492;54.856;26.318;2023-04-16T15:16:20;12.7;10.5;7.5
45788;PMS7003;31492;54.856;26.318;2023-04-16T15:21:02;13.2;10.8;7.6
45788;PMS7003;31492;54.856;26.318;2023-04-16T15:26:02;12.3;10.4;7.2
45788;PMS7003;31492;54.856;26.318;2023-04-16T15:31:02;14;11.4;8.4
45788;PMS7003;31492;54.856;26.318;2023-04-16T15:36:12;14.2;11.1;7.6
45788;PMS7003;31492;54.856;26.318;2023-04-16T15:41:02;12.7;10.6;8
45788;PMS7003;31492;54.856;26.318;2023-04-16T15:46:02;12;10.5;7.1
45788;PMS7003;31492;54.856;26.318;2023-04-16T15:51:02;12.5;9.9;7.1
45788;PMS7003;31492;54.856;26.318;2023-04-16T15:56:08;13.3;11;7.5
45788;PMS7003;31492;54.856;26.318;2023-04-16T16:01:02;13.5;11.4;7.9
45788;PMS7003;31492;54.856;26.318;2023-04-16T16:06:32;13.8;11.7;8.1
45788;PMS7003;31492;54.856;26.318;2023-04-16T16:11:34;13.2;11.2;7.7
45788;PMS7003;31492;54.856;26.318;2023-04-16T16:16:02;12.7;10.9;7.6
45788;PMS7003;31492;54.856;26.318;2023-04-16T16:21:14;13;11.2;7.9
45788;PMS7003;31492;54.856;26.318;2023-04-16T16:26:02;15.3;12.6;8.8
45788;PMS7003;31492;54.856;26.318;2023-04-16T16:31:02;14.5;11.9;8
45788;PMS7003;31492;54.856;26.318;2023-04-16T16:36:12;13.4;10.7;7.6
45788;PMS7003;31492;54.856;26.318;2023-04-16T16:41:02;14;11.5;8
45788;PMS7003;31492;54.856;26.318;2023-04-16T16:46:02;13.6;11.4;8.3
45788;PMS7003;31492;54.856;26.318;2023-04-16T16:51:02;13.6;11.1;7.9
45788;PMS7003;31492;54.856;26.318;2023-04-16T16:56:24;14;11.3;7.8
45788;PMS7003;31492;54.856;26.318;2023-04-16T17:01:12;12;10.3;7.7
45788;PMS7003;31492;54.856;26.318;2023-04-16T17:06:02;14.1;11.2;7.7
45788;PMS7003;31492;54.856;26.318;2023-04-16T17:11:14;11.9;10.6;7.3
45788;PMS7003;31492;54.856;26.318;2023-04-16T17:16:02;13.5;11;7.8
45788;PMS7003;31492;54.856;26.318;2023-04-16T17:21:14;13.3;11;7.5
45788;PMS7003;31492;54.856;26.318;2023-04-16T17:26:02;13.3;10.8;7.6
45788;PMS7003;31492;54.856;26.318;2023-04-16T17:31:36;12.9;10.9;7.5
45788;PMS7003;31492;54.856;26.318;2023-04-16T17:36:14;14.2;10.9;8
45788;PMS7003;31492;54.856;26.318;2023-04-16T17:41:24;13.1;11.4;8.2
45788;PMS7003;31492;54.856;26.318;2023-04-16T17:46:02;12.2;10.9;8.1
45788;PMS7003;31492;54.856;26.318;2023-04-16T17:51:07;13.6;10.8;7.6
45788;PMS7003;31492;54.856;26.318;2023-04-16T17:56:12;13.1;10.8;7.7
45788;PMS7003;31492;54.856;26.318;2023-04-16T18:01:02;13.8;11.1;7.5
45788;PMS7003;31492;54.856;26.318;2023-04-16T18:06:12;12.7;10.1;7.3
45788;PMS7003;31492;54.856;26.318;2023-04-16T18:11:04;12.1;10.3;7.7
45788;PMS7003;31492;54.856;26.318;2023-04-16T18:16:24;12.6;10.3;7.3
45788;PMS7003;31492;54.856;26.318;2023-04-16T18:21:20;12.7;10.7;7.3
45788;PMS7003;31492;54.856;26.318;2023-04-16T18:26:20;11.5;9.5;6.8
45788;PMS7003;31492;54.856;26.318;2023-04-16T18:31:02;11.2;9.7;7.1
45788;PMS7003;31492;54.856;26.318;2023-04-16T18:36:24;12.8;10.9;7.5
45788;PMS7003;31492;54.856;26.318;2023-04-16T18:41:02;12.3;10.5;7.7
45788;PMS7003;31492;54.856;26.318;2023-04-16T18:46:12;13;10.8;7.9
45788;PMS7003;31492;54.856;26.318;2023-04-16T18:51:20;12.1;10.1;7.4
45788;PMS7003;31492;54.856;26.318;2023-04-16T18:56:12;12;10.2;7.3
45788;PMS7003;31492;54.856;26.318;2023-04-16T19:01:02;11.8;9.8;6.9
45788;PMS7003;31492;54.856;26.318;2023-04-16T19:06:24;13.4;10.7;7.6
45788;PMS7003;31492;54.856;26.318;2023-04-16T19:11:22;12;10.1;7.3
45788;PMS7003;31492;54.856;26.318;2023-04-16T19:16:16;12.8;10.8;7.6
45788;PMS7003;31492;54.856;26.318;2023-04-16T19:21:12;13;10.5;7
45788;PMS7003;31492;54.856;26.318;2023-04-16T19:26:02;13.4;11;7.7
45788;PMS7003;31492;54.856;26.318;2023-04-16T19:31:02;13.7;11.6;7.8
45788;PMS7003;31492;54.856;26.318;2023-04-16T19:36:10;12.3;11.2;7.8
45788;PMS7003;31492;54.856;26.318;2023-04-16T19:41:14;13.5;11.3;8.2
45788;PMS7003;31492;54.856;26.318;2023-04-16T19:46:16;12.5;11;7.9
45788;PMS7003;31492;54.856;26.318;2023-04-16T19:51:02;13.8;11.2;8.1
45788;PMS7003;31492;54.856;26.318;2023-04-16T19:56:03;12.6;10.7;7.6
45788;PMS7003;31492;54.856;26.318;2023-04-16T20:01:07;14.6;12;8.1
45788;PMS7003;31492;54.856;26.318;2023-04-16T20:06:02;14;11.5;8.2
45788;PMS7003;31492;54.856;26.318;2023-04-16T20:11:14;14.4;12.2;8.3
45788;PMS7003;31492;54.856;26.318;2023-04-16T20:16:02;13;10.8;8
45788;PMS7003;31492;54.856;26.318;2023-04-16T20:21:12;12.2;10.5;7.6
45788;PMS7003;31492;54.856;26.318;2023-04-16T20:26:08;13.6;11.5;8.5
45788;PMS7003;31492;54.856;26.318;2023-04-16T20:31:02;12.8;10.4;7.3
45788;PMS7003;31492;54.856;26.318;2023-04-16T20:36:28;13.2;11.4;8
45788;PMS7003;31492;54.856;26.318;2023-04-16T20:41:14;14.3;12.1;8.8
45788;PMS7003;31492;54.856;26.318;2023-04-16T20:46:12;14.4;12.6;8.9
45788;PMS7003;31492;54.856;26.318;2023-04-16T20:51:02;15.2;12.6;9.1
45788;PMS7003;31492;54.856;26.318;2023-04-16T20:56:20;14.5;11.9;8.5
45788;PMS7003;31492;54.856;26.318;2023-04-16T21:01:20;14.6;12.5;8.9
45788;PMS7003;31492;54.856;26.318;2023-04-16T21:06:02;15.4;13.6;9.2
45788;PMS7003;31492;54.856;26.318;2023-04-16T21:11:12;13.7;11.4;8
45788;PMS7003;31492;54.856;26.318;2023-04-16T21:16:18;14.9;13.1;8.9
45788;PMS7003;31492;54.856;26.318;2023-04-16T21:21:22;13.8;12.4;8.4
45788;PMS7003;31492;54.856;26.318;2023-04-16T21:26:24;14.6;12.4;9
45788;PMS7003;31492;54.856;26.318;2023-04-16T21:31:14;16.3;13.7;9.4
45788;PMS7003;31492;54.856;26.318;2023-04-16T21:36:12;15.1;12.7;9.1
45788;PMS7003;31492;54.856;26.318;2023-04-16T21:41:12;14;12.2;9
45788;PMS7003;31492;54.856;26.318;2023-04-16T21:46:14;16;12.8;8.9
45788;PMS7003;31492;54.856;26.318;2023-04-16T21:51:34;15.4;12.5;8.4
45788;PMS7003;31492;54.856;26.318;2023-04-16T21:56:14;15.3;12.8;9
45788;PMS7003;31492;54.856;26.318;2023-04-16T22:01:02;15.1;12.5;9.1
45788;PMS7003;31492;54.856;26.318;2023-04-16T22:06:02;15.3;13;9.4
45788;PMS7003;31492;54.856;26.318;2023-04-16T22:11:14;15.5;13.1;9.2
45788;PMS7003;31492;54.856;26.318;2023-04-16T22:16:14;13.9;12.5;9.2
45788;PMS7003;31492;54.856;26.318;2023-04-16T22:21:14;14.3;12.8;8.8
45788;PMS7003;31492;54.856;26.318;2023-04-16T22:26:24;15.6;12.8;8.9
45788;PMS7003;31492;54.856;26.318;2023-04-16T22:31:02;15.3;12.9;9.1
45788;PMS7003;31492;54.856;26.318;2023-04-16T22:36:02;15.9;13.1;9.1
45788;PMS7003;31492;54.856;26.318;2023-04-16T22:41:14;16;13.2;9.2
45788;PMS7003;31492;54.856;26.318;2023-04-16T22:46:14;15.3;12.9;9.4
45788;PMS7003;31492;54.856;26.318;2023-04-16T22:51:12;15.2;13;9.2
45788;PMS7003;31492;54.856;26.318;2023-04-16T22:56:10;14.7;13.3;9.6
45788;PMS7003;31492;54.856;26.318;2023-04-16T23:01:22;14.5;12.3;9.1
45788;PMS7003;31492;54.856;26.318;2023-04-16T23:06:14;13.8;11.6;8
45788;PMS7003;31492;54.856;26.318;2023-04-16T23:11:24;15.1;12.4;8.7
45788;PMS7003;31492;54.856;26.318;2023-04-16T23:16:02;16;13.2;9.3
45788;PMS7003;31492;54.856;26.318;2023-04-16T23:21:12;15.3;12;8.7
45788;PMS7003;31492;54.856;26.318;2023-04-16T23:26:14;15.6;13.3;9.1
45788;PMS7003;31492;54.856;26.318;2023-04-16T23:31:14;17.2;13.1;9.1
45788;PMS7003;31492;54.856;26.318;2023-04-16T23:36:12;13.6;11;7.9
45788;PMS7003;31492;54.856;26.318;2023-04-16T23:41:12;15.7;12.5;8.7
45788;PMS7003;31492;54.856;26.318;2023-04-16T23:46:24;15.8;12.4;8.3
45788;PMS7003;31492;54.856;26.318;2023-04-16T23:51:12;14.6;12;8.8
45788;PMS7003;31492;54.856;26.318;2023-04-16T23:56:20;14.5;12.4;8.3
